• Join FlightAware (Why Join?)
  • Login
  • US Flag 
10:53PM EST


 

Airport Tracker/Info


-or-


 

Live Flight TrackerFlight Track Log ✈ N45EJ ✈ 15-Aug-2013 ✈ KPWK - I68

Flight Track Log - Related Links

Times and Time Zones

All times are in EDT time to prevent confusion due to time zone crossing. See the N45EJ flight status page for this flight to view local times or setup timezone preferences in your user account.

Time Position Orientation Groundspeed Altitude Reporting Facility
EDT Latitude Longitude Course Direction KTS MPH feet Rate Location/Type
09:14AM 42.0906 -87.8669 48° Northeast 196 226 1,800  Level Chicago Center
09:15AM 42.1344 -87.8011 48° Northeast 257 296 4,500 3,060 Climbing Chicago Center
09:16AM 42.1772 -87.7214 54° Northeast 281 323 8,200 3,780 Climbing Chicago Center
09:17AM 42.1464 -87.5956 108° East 302 348 12,400 3,540 Climbing Chicago Center
09:18AM 42.1061 -87.4903 117° Southeast 314 361 15,600 2,880 Climbing Chicago Center
09:19AM 42.0644 -87.3822 117° Southeast 323 372 18,400 1,740 Climbing Chicago Center
09:20AM 42.0186 -87.2592 117° Southeast 372 428 19,200 1,260 Climbing Chicago Center
09:21AM 41.9669 -87.1225 117° Southeast 406 467 21,100 1,740 Climbing Chicago Center
09:22AM 41.9467 -86.9736 100° East 412 474 22,900 900 Climbing Chicago Center
09:23AM 41.9269 -86.7778 98° East 441 507 23,000  Climbing Chicago Center
09:24AM 41.9056 -86.6244 101° East 445 512 23,000 -60 Level Chicago Center
09:25AM 41.8825 -86.4617 101° East 445 512 22,900 -420 Descending Chicago Center
09:26AM 41.8608 -86.3017 100° East 439 505 22,200 -780 Descending Chicago Center
09:27AM 41.8328 -86.1083 101° East 442 509 21,300 -600 Descending Chicago Center
09:28AM 41.8100 -85.9467 101° East 442 509 21,000 -180 Descending Chicago Center
09:30AM 41.7461 -85.8197 124° Southeast 429 494 21,000  Level Chicago Center
09:31AM 41.6436 -85.7453 152° Southeast 425 489 21,000  Level Chicago Center
09:32AM 41.5414 -85.6731 152° Southeast 423 487 21,000  Level Chicago Center
09:33AM 41.4197 -85.5844 151° Southeast 423 487 21,000  Level Chicago Center
09:34AM 41.3172 -85.5117 152° Southeast 423 487 21,000  Level Chicago Center
09:35AM 41.2128 -85.4378 152° Southeast 427 491 21,000  Level Chicago Center
09:36AM 41.1083 -85.3669 153° Southeast 425 489 21,000  Level Chicago Center
09:37AM 40.9994 -85.2897 152° Southeast 440 506 21,000  Level Chicago Center
09:38AM 40.8669 -85.1969 152° Southeast 450 518 21,000 -600 Level Chicago Center
09:39AM 40.7581 -85.1225 153° Southeast 445 512 19,800 -1,560 Descending Chicago Center
09:40AM 40.6528 -85.0503 152° Southeast 434 499 17,800 -1,620 Descending Chicago Center
09:41AM 40.5922 -85.0103 153° Southeast 429 494 17,100 -420 Descending Indianapolis Center
09:42AM 40.4706 -84.9267 152° Southeast 415 478 17,100 -480 Level Indianapolis Center
09:42AM 40.3794 -84.8656 153° Southeast 411 473 16,200 -1,320 Descending Indianapolis Center
09:44AM 40.2694 -84.7906 153° Southeast 405 466 14,400 -1,680 Descending Indianapolis Center
09:45AM 40.1717 -84.7244 153° Southeast 401 461 12,500 -1,800 Descending Indianapolis Center
09:46AM 40.0844 -84.6675 153° Southeast 380 437 10,800 -1,800 Descending Indianapolis Center
09:47AM 40.0078 -84.6175 153° Southeast 353 406 8,800 -2,160 Descending Indianapolis Center
09:48AM 39.9228 -84.5581 152° Southeast 281 323 6,200 -1,320 Descending Indianapolis Center
09:49AM 39.8594 -84.5175 154° Southeast 293 337 6,100 -60 Descending Indianapolis Center
09:50AM 39.7814 -84.4639 152° Southeast 270 311 6,100 -240 Level Indianapolis Center
09:51AM 39.7292 -84.4289 153° Southeast 273 314 5,700 -1,020 Descending Indianapolis Center
09:52AM 39.6575 -84.3814 153° Southeast 238 274 4,200 -900 Descending Indianapolis Center
09:52AM 39.6575 -84.3814 153° Southeast 271 312 4,800 -1,320 Climbing Indianapolis Center
09:53AM 39.6008 -84.3411 151° Southeast 232 267 2,900 -1,140 Descending Indianapolis Center
09:54AM 39.5589 -84.3011 144° Southeast 173 199 2,600 -300 Descending Indianapolis Center
09:56AM 39.4622 -84.2518 166° South  Level Estimated
10:03AM 39.4622 -84.2518 166° South  Level Estimated
10:04AM 39.4622 -84.2518 166° South  Level Estimated
10:05AM 39.4622 -84.2518 166° South  Level Estimated